Time;durP1;ratioP1;P1;durP2;ratioP2;P2;SDS_P1;SDS_P2;PMS_P1;PMS_P2;Temp;Humidity;BMP_temperature;BMP_pressure;BME280_temperature;BME280_humidity;BME280_pressure;Samples;Min_cycle;Max_cycle;Signal;HPM_P1;HPM_P2
2022/11/20 00:00:09;;;;;;;23.02;11.55;;;4.00;99.90;;;;;;4939162;28;20035;-73
2022/11/20 00:02:35;;;;;;;19.50;11.25;;;4.00;99.90;;;;;;4946221;28;20111;-73
2022/11/20 00:05:00;;;;;;;20.48;10.95;;;4.10;99.90;;;;;;4939830;28;20461;-73
2022/11/20 00:07:26;;;;;;;20.27;11.63;;;4.00;99.90;;;;;;4945138;28;20039;-73
2022/11/20 00:09:51;;;;;;;21.20;11.52;;;4.10;99.90;;;;;;4945371;28;20031;-73
2022/11/20 00:12:17;;;;;;;21.42;10.60;;;4.20;99.90;;;;;;4945315;28;20289;-74
2022/11/20 00:14:43;;;;;;;22.70;12.20;;;4.20;99.90;;;;;;4944680;28;20094;-72
2022/11/20 00:17:08;;;;;;;21.17;11.18;;;4.10;99.90;;;;;;4945778;28;20052;-73
2022/11/20 00:19:34;;;;;;;20.73;12.07;;;4.10;99.90;;;;;;4943196;28;20042;-73
2022/11/20 00:22:00;;;;;;;19.98;11.52;;;4.20;99.90;;;;;;4942153;28;20035;-73
2022/11/20 00:24:25;;;;;;;24.20;12.05;;;4.20;99.90;;;;;;4943232;28;20101;-73
2022/11/20 00:26:51;;;;;;;22.85;12.63;;;4.20;99.90;;;;;;4943410;28;20139;-73
2022/11/20 00:29:16;;;;;;;21.80;12.15;;;4.30;99.90;;;;;;4931949;28;20490;-73
2022/11/20 00:31:42;;;;;;;27.88;12.05;;;4.20;99.90;;;;;;4939712;28;20059;-73
2022/11/20 00:34:09;;;;;;;20.70;11.57;;;4.20;99.90;;;;;;4943545;28;20107;-73
2022/11/20 00:36:35;;;;;;;26.70;12.30;;;4.30;99.90;;;;;;4945445;28;20113;-73
2022/11/20 00:39:00;;;;;;;24.50;12.13;;;4.30;99.90;;;;;;4944924;28;20031;-72
2022/11/20 00:41:28;;;;;;;21.83;11.90;;;4.40;99.90;;;;;;4940007;28;20051;-73
2022/11/20 00:43:54;;;;;;;25.02;13.00;;;4.40;99.90;;;;;;4942782;28;20039;-73
2022/11/20 00:46:22;;;;;;;24.00;13.13;;;4.50;99.90;;;;;;4947207;28;20174;-73
2022/11/20 00:48:48;;;;;;;26.75;13.10;;;4.50;99.90;;;;;;4933043;28;20586;-73
2022/11/20 00:51:16;;;;;;;22.67;12.80;;;4.60;99.90;;;;;;4926446;29;20129;-72
2022/11/20 00:53:42;;;;;;;21.67;11.88;;;4.70;99.90;;;;;;4938894;28;20035;-73
2022/11/20 00:56:11;;;;;;;24.15;12.43;;;4.70;99.90;;;;;;4945080;28;20054;-73
2022/11/20 00:58:39;;;;;;;22.48;11.98;;;4.80;99.90;;;;;;4945412;28;20271;-73
2022/11/20 01:01:09;;;;;;;21.42;11.65;;;4.80;99.90;;;;;;4943776;28;20039;-73
2022/11/20 01:03:37;;;;;;;23.95;11.48;;;4.80;99.90;;;;;;4945328;28;20585;-73
2022/11/20 01:06:15;;;;;;;19.55;10.95;;;4.80;99.90;;;;;;4944561;28;20046;-72
2022/11/20 01:08:41;;;;;;;23.25;12.15;;;4.80;99.90;;;;;;4942969;28;20153;-74
2022/11/20 01:11:16;;;;;;;19.10;11.07;;;4.80;99.90;;;;;;4944316;28;20102;-73
2022/11/20 01:13:43;;;;;;;20.48;10.82;;;4.90;99.90;;;;;;4943638;28;20040;-73
2022/11/20 01:16:11;;;;;;;23.48;11.25;;;4.90;99.90;;;;;;4945408;28;20085;-73
2022/11/20 01:18:39;;;;;;;22.05;11.65;;;4.90;99.90;;;;;;4942246;28;20047;-73
2022/11/20 01:21:08;;;;;;;20.27;11.30;;;4.90;99.90;;;;;;4926469;29;20400;-73
2022/11/20 01:23:35;;;;;;;17.83;11.20;;;4.80;99.90;;;;;;4929987;28;20093;-73
2022/11/20 01:26:05;;;;;;;25.42;11.35;;;4.90;99.90;;;;;;4941929;28;20037;-73
2022/11/20 01:28:31;;;;;;;18.63;11.25;;;5.00;99.90;;;;;;4941622;28;20027;-73
2022/11/20 01:30:57;;;;;;;21.05;11.10;;;5.00;99.90;;;;;;4943820;28;20046;-73
2022/11/20 01:33:23;;;;;;;19.42;11.25;;;5.00;99.90;;;;;;4943993;28;20031;-73
2022/11/20 01:35:49;;;;;;;23.40;11.57;;;4.90;99.90;;;;;;4943916;28;20035;-73
2022/11/20 01:38:16;;;;;;;21.20;11.82;;;4.90;99.90;;;;;;4924795;29;20035;-73
2022/11/20 01:40:41;;;;;;;20.35;11.68;;;4.80;99.90;;;;;;4925613;28;20052;-73
2022/11/20 01:43:22;;;;;;;27.65;12.00;;;4.80;99.90;;;;;;4941121;28;20032;-73
2022/11/20 01:46:14;;;;;;;22.20;11.80;;;4.90;99.90;;;;;;4944631;28;20490;-72
2022/11/20 01:49:12;;;;;;;18.65;10.38;;;4.90;99.90;;;;;;4941229;28;20050;-73
2022/11/20 01:51:40;;;;;;;21.05;10.32;;;5.00;99.90;;;;;;4937449;28;20070;-73
2022/11/20 01:54:13;;;;;;;20.60;11.32;;;5.00;99.90;;;;;;4934533;28;20142;-73
2022/11/20 01:56:43;;;;;;;20.30;11.40;;;5.00;99.90;;;;;;4935365;29;20042;-73
2022/11/20 01:59:10;;;;;;;20.60;11.13;;;5.00;99.90;;;;;;4941629;28;20042;-73
2022/11/20 02:01:36;;;;;;;18.02;10.98;;;5.00;99.90;;;;;;4943718;28;20031;-73
2022/11/20 02:04:02;;;;;;;22.33;12.40;;;5.10;99.90;;;;;;4944032;28;20039;-73
2022/11/20 02:06:33;;;;;;;18.35;11.00;;;5.20;99.90;;;;;;4933072;28;20349;-73
2022/11/20 02:08:58;;;;;;;20.40;11.80;;;5.20;99.90;;;;;;4923426;29;20114;-73
2022/11/20 02:11:24;;;;;;;18.65;10.82;;;5.30;99.90;;;;;;4938745;28;20114;-73
2022/11/20 02:13:50;;;;;;;19.67;10.93;;;5.30;99.90;;;;;;4940593;28;20050;-73
2022/11/20 02:16:20;;;;;;;22.23;11.38;;;5.30;99.90;;;;;;4941676;28;20038;-73
2022/11/20 02:18:47;;;;;;;20.63;11.10;;;5.30;99.90;;;;;;4942498;28;20083;-73
2022/11/20 02:21:18;;;;;;;23.23;11.65;;;5.30;99.90;;;;;;4941625;28;20042;-73
2022/11/20 02:24:07;;;;;;;22.42;11.07;;;5.30;99.90;;;;;;4943702;28;20042;-73
2022/11/20 02:26:41;;;;;;;22.85;10.95;;;5.30;99.90;;;;;;4942174;28;20453;-73
2022/11/20 02:29:06;;;;;;;19.75;10.95;;;5.30;99.90;;;;;;4922991;29;20039;-73
2022/11/20 02:31:42;;;;;;;16.77;9.52;;;5.30;99.90;;;;;;4938318;28;20030;-73
2022/11/20 02:34:08;;;;;;;20.23;10.77;;;5.30;99.90;;;;;;4928719;28;20442;-74
2022/11/20 02:36:35;;;;;;;23.83;10.57;;;5.30;99.90;;;;;;4925827;29;20491;-73
2022/11/20 02:39:02;;;;;;;21.88;10.82;;;5.20;99.90;;;;;;4941933;28;20043;-73
2022/11/20 02:41:35;;;;;;;25.95;11.73;;;5.40;99.90;;;;;;4940862;28;20047;-73
2022/11/20 02:44:01;;;;;;;15.38;9.13;;;5.40;99.90;;;;;;4942446;28;20464;-73
2022/11/20 02:46:27;;;;;;;16.67;10.05;;;5.50;99.90;;;;;;4943404;28;20069;-74
2022/11/20 02:48:53;;;;;;;16.05;9.25;;;5.60;99.90;;;;;;4936491;28;20190;-74
2022/11/20 02:51:18;;;;;;;17.60;9.70;;;5.60;99.90;;;;;;4931275;29;20039;-74
2022/11/20 02:53:44;;;;;;;20.90;9.38;;;5.50;99.90;;;;;;4939140;28;20214;-74
2022/11/20 02:56:10;;;;;;;22.35;11.05;;;5.50;99.90;;;;;;4945623;28;20046;-74
2022/11/20 02:58:35;;;;;;;19.50;10.55;;;5.50;99.90;;;;;;4938916;28;20132;-74
2022/11/20 03:01:01;;;;;;;20.13;9.90;;;5.50;99.90;;;;;;4932587;28;20023;-74
2022/11/20 03:03:26;;;;;;;16.63;9.32;;;5.60;99.90;;;;;;4935832;28;20488;-74
2022/11/20 03:05:52;;;;;;;18.45;10.68;;;5.70;99.90;;;;;;4928608;29;20396;-74
2022/11/20 03:08:18;;;;;;;20.92;10.85;;;5.60;99.90;;;;;;4941038;28;20042;-74
2022/11/20 03:10:43;;;;;;;20.77;9.55;;;5.60;99.90;;;;;;4938994;28;20047;-74
2022/11/20 03:13:09;;;;;;;18.70;8.77;;;5.60;99.90;;;;;;4934290;28;20407;-74
2022/11/20 03:15:36;;;;;;;13.93;8.48;;;5.70;99.90;;;;;;4926492;29;20035;-74
2022/11/20 03:18:02;;;;;;;14.68;8.23;;;5.70;99.90;;;;;;4942321;28;20035;-74
2022/11/20 03:20:28;;;;;;;18.02;8.85;;;5.70;99.90;;;;;;4942114;29;20023;-74
2022/11/20 03:22:54;;;;;;;19.08;9.27;;;5.70;99.90;;;;;;4941700;28;20035;-74
2022/11/20 03:25:20;;;;;;;15.88;8.45;;;5.70;99.90;;;;;;4936070;28;20380;-74
2022/11/20 03:27:45;;;;;;;18.80;9.77;;;5.70;99.90;;;;;;4943134;28;20046;-74
2022/11/20 03:30:11;;;;;;;14.45;8.23;;;5.80;99.90;;;;;;4943050;28;20110;-74
2022/11/20 03:32:37;;;;;;;19.50;8.63;;;5.90;99.90;;;;;;4943395;28;20051;-74
2022/11/20 03:35:03;;;;;;;18.05;8.90;;;5.90;99.90;;;;;;4940594;28;20035;-75
2022/11/20 03:37:28;;;;;;;17.33;8.07;;;5.90;99.90;;;;;;4942805;28;20222;-74
2022/11/20 03:39:54;;;;;;;15.43;9.18;;;5.90;99.90;;;;;;4933181;29;20142;-74
2022/11/20 03:45:04;;;;;;;18.13;8.25;;;5.80;99.90;;;;;;4942987;28;20073;-74
2022/11/20 03:47:29;;;;;;;13.60;8.05;;;5.90;99.90;;;;;;4943407;28;20035;-74
2022/11/20 03:49:55;;;;;;;17.98;7.45;;;6.00;99.90;;;;;;4931634;29;20039;-74
2022/11/20 03:52:21;;;;;;;14.40;7.60;;;6.10;99.90;;;;;;4924038;29;20035;-74
2022/11/20 03:54:46;;;;;;;12.52;6.78;;;6.10;99.90;;;;;;4950538;28;20601;-74
2022/11/20 03:57:12;;;;;;;13.15;6.95;;;6.20;99.90;;;;;;4940765;28;20104;-74
2022/11/20 03:59:37;;;;;;;13.18;7.13;;;6.30;99.90;;;;;;4930381;28;20434;-74
2022/11/20 04:02:03;;;;;;;12.57;6.93;;;6.30;99.90;;;;;;4926379;28;20376;-74
2022/11/20 04:04:28;;;;;;;14.57;6.55;;;6.40;99.90;;;;;;4933449;29;20042;-74
2022/11/20 04:06:54;;;;;;;12.48;6.70;;;6.50;99.90;;;;;;4943640;28;20447;-73
2022/11/20 04:09:20;;;;;;;11.45;6.93;;;6.50;99.90;;;;;;4944956;28;20252;-74
2022/11/20 04:11:45;;;;;;;14.23;6.70;;;6.50;99.90;;;;;;4945348;28;20371;-74
2022/11/20 04:14:15;;;;;;;11.18;6.47;;;6.60;99.90;;;;;;4935553;28;20051;-74
2022/11/20 04:16:41;;;;;;;13.32;6.68;;;6.50;99.90;;;;;;4945108;28;20284;-73
2022/11/20 04:19:11;;;;;;;10.90;7.05;;;6.50;99.90;;;;;;4945927;28;20175;-73
2022/11/20 04:21:37;;;;;;;11.20;6.72;;;6.60;99.90;;;;;;4945323;28;20038;-74
2022/11/20 04:24:03;;;;;;;13.07;5.97;;;6.60;99.90;;;;;;4943215;28;20031;-74
2022/11/20 04:26:30;;;;;;;12.65;6.53;;;6.70;99.90;;;;;;4941261;28;20486;-74
2022/11/20 04:28:57;;;;;;;10.25;5.82;;;6.80;99.90;;;;;;4946464;28;20023;-73
2022/11/20 04:31:28;;;;;;;17.13;6.38;;;6.90;99.90;;;;;;4944225;28;20428;-74
2022/11/20 04:33:54;;;;;;;15.45;5.05;;;7.00;99.90;;;;;;4946427;28;20054;-73
2022/11/20 04:36:24;;;;;;;9.32;5.47;;;7.00;99.90;;;;;;4945734;28;20031;-73
2022/11/20 04:39:01;;;;;;;10.82;5.35;;;7.10;99.90;;;;;;4934036;29;20035;-73
2022/11/20 04:41:29;;;;;;;9.38;4.60;;;7.20;99.90;;;;;;4945019;28;20043;-74
2022/11/20 04:44:04;;;;;;;10.32;5.90;;;7.30;99.90;;;;;;4945460;28;20554;-74
2022/11/20 04:46:35;;;;;;;9.90;5.88;;;7.30;99.90;;;;;;4944857;28;20428;-74
2022/11/20 04:49:01;;;;;;;11.05;5.82;;;7.30;99.90;;;;;;4944359;28;20035;-73
2022/11/20 04:51:27;;;;;;;10.60;6.03;;;7.30;99.90;;;;;;4941221;29;20480;-72
2022/11/20 04:53:53;;;;;;;16.75;6.18;;;7.30;99.90;;;;;;4942534;28;20127;-74
2022/11/20 04:56:19;;;;;;;12.23;5.82;;;7.30;99.90;;;;;;4944058;28;20034;-73
2022/11/20 04:58:45;;;;;;;11.77;5.88;;;7.30;99.90;;;;;;4944802;28;20125;-73
2022/11/20 05:01:19;;;;;;;9.60;5.78;;;7.20;99.90;;;;;;4943963;28;20074;-73
2022/11/20 05:03:45;;;;;;;10.05;5.90;;;7.30;99.90;;;;;;4930461;28;20146;-73
2022/11/20 05:06:13;;;;;;;11.30;6.07;;;7.30;99.90;;;;;;4941053;29;20101;-73
2022/11/20 05:08:40;;;;;;;11.98;5.55;;;7.30;99.90;;;;;;4943894;28;20043;-74
2022/11/20 05:11:08;;;;;;;10.60;5.53;;;7.30;99.90;;;;;;4944055;28;20031;-73
2022/11/20 05:13:34;;;;;;;11.93;5.63;;;7.30;99.90;;;;;;4942997;28;20055;-73
2022/11/20 05:16:08;;;;;;;9.20;5.22;;;7.40;99.90;;;;;;4941230;28;20035;-74
2022/11/20 05:18:34;;;;;;;10.40;5.75;;;7.40;99.90;;;;;;4944258;28;20078;-73
2022/11/20 05:21:00;;;;;;;11.77;5.22;;;7.50;99.90;;;;;;4943721;28;20027;-73
2022/11/20 05:23:28;;;;;;;12.13;5.50;;;7.50;99.90;;;;;;4942847;28;20110;-73
2022/11/20 05:25:55;;;;;;;12.00;5.32;;;7.50;99.90;;;;;;4941079;28;20031;-73
2022/11/20 05:28:21;;;;;;;10.07;5.25;;;7.50;99.90;;;;;;4937357;28;20482;-73
2022/11/20 05:30:48;;;;;;;8.77;4.95;;;7.50;99.90;;;;;;4944530;28;20137;-73
2022/11/20 05:33:13;;;;;;;8.63;5.05;;;7.60;99.90;;;;;;4944351;28;20410;-73
2022/11/20 05:35:39;;;;;;;9.18;5.75;;;7.60;99.90;;;;;;4942649;28;20094;-73
2022/11/20 05:38:04;;;;;;;10.65;4.75;;;7.70;99.90;;;;;;4941477;28;20039;-73
2022/11/20 05:40:30;;;;;;;9.48;5.20;;;7.70;99.90;;;;;;4925063;29;20055;-73
2022/11/20 05:42:56;;;;;;;9.23;4.80;;;7.60;99.90;;;;;;4925915;29;20468;-73
2022/11/20 05:45:21;;;;;;;5.65;3.72;;;7.60;99.90;;;;;;4937610;28;20219;-73
2022/11/20 05:47:47;;;;;;;7.75;3.40;;;7.70;99.90;;;;;;4942610;28;20078;-73
2022/11/20 05:50:14;;;;;;;6.63;3.25;;;7.80;99.90;;;;;;4942433;28;20131;-73
2022/11/20 05:52:39;;;;;;;7.65;4.18;;;7.90;99.90;;;;;;4933175;28;20118;-73
2022/11/20 05:55:06;;;;;;;5.50;3.47;;;7.90;99.90;;;;;;4944215;28;20106;-73
2022/11/20 05:57:32;;;;;;;9.05;3.05;;;8.00;99.90;;;;;;4941754;28;20062;-73
2022/11/20 05:59:57;;;;;;;6.53;2.80;;;8.20;99.90;;;;;;4943833;28;20035;-73
2022/11/20 06:02:23;;;;;;;5.53;2.90;;;8.30;99.90;;;;;;4941270;28;20147;-73
2022/11/20 06:04:49;;;;;;;5.95;2.20;;;8.30;99.90;;;;;;4937540;28;20039;-74
2022/11/20 06:07:14;;;;;;;7.75;1.52;;;8.50;99.90;;;;;;4942315;28;20109;-74
2022/11/20 06:09:40;;;;;;;5.88;0.90;;;8.80;99.90;;;;;;4928631;29;20829;-74
2022/11/20 06:12:07;;;;;;;5.55;1.58;;;9.00;99.90;;;;;;4939534;29;20054;-73
2022/11/20 06:14:33;;;;;;;7.22;0.90;;;9.10;99.90;;;;;;4931741;28;20086;-74
2022/11/20 06:16:59;;;;;;;5.30;0.75;;;9.20;99.90;;;;;;4932207;29;20031;-74
2022/11/20 06:19:24;;;;;;;7.15;0.90;;;9.30;99.90;;;;;;4943756;28;20031;-73
2022/11/20 06:21:50;;;;;;;11.38;0.80;;;9.40;99.90;;;;;;4943533;28;20034;-74
2022/11/20 06:24:16;;;;;;;3.20;0.52;;;9.40;99.90;;;;;;4940859;28;20053;-74
2022/11/20 06:26:42;;;;;;;3.08;0.68;;;9.50;99.90;;;;;;4943831;28;20035;-74
2022/11/20 06:29:08;;;;;;;2.38;0.55;;;9.50;99.90;;;;;;4943405;28;20456;-74
2022/11/20 06:31:34;;;;;;;7.20;0.68;;;9.50;99.90;;;;;;4943195;29;20371;-73
2022/11/20 06:34:01;;;;;;;3.10;1.02;;;9.50;99.90;;;;;;4944021;28;20035;-74
2022/11/20 06:36:26;;;;;;;1.40;0.47;;;9.60;99.90;;;;;;4944427;28;20038;-73
2022/11/20 06:38:52;;;;;;;3.22;0.47;;;9.60;99.90;;;;;;4941918;28;20035;-73
2022/11/20 06:41:22;;;;;;;2.60;0.60;;;9.60;99.90;;;;;;4941585;28;20039;-73
2022/11/20 06:43:48;;;;;;;2.97;0.70;;;9.60;99.90;;;;;;4943160;28;20035;-73
2022/11/20 06:46:17;;;;;;;3.47;0.73;;;9.70;99.90;;;;;;4946315;28;20386;-74
2022/11/20 06:48:43;;;;;;;7.03;1.02;;;9.60;99.90;;;;;;4961385;28;20034;-74
2022/11/20 06:51:09;;;;;;;6.07;1.40;;;9.70;99.90;;;;;;4940662;28;20027;-74
2022/11/20 06:53:35;;;;;;;5.05;0.90;;;9.70;99.90;;;;;;4942391;28;20070;-73
2022/11/20 06:56:01;;;;;;;4.68;1.10;;;9.70;99.90;;;;;;4943455;28;20039;-75
2022/11/20 06:58:28;;;;;;;5.07;1.05;;;9.70;99.90;;;;;;4942731;28;20417;-73
2022/11/20 07:00:57;;;;;;;7.13;1.50;;;9.80;99.90;;;;;;4939938;28;20031;-73
2022/11/20 07:03:23;;;;;;;5.00;1.02;;;9.80;99.90;;;;;;4939230;28;20079;-73
2022/11/20 07:05:48;;;;;;;2.83;0.75;;;9.80;99.90;;;;;;4935331;28;20407;-75
2022/11/20 07:08:14;;;;;;;5.40;0.63;;;9.80;99.90;;;;;;4943687;28;20066;-75
2022/11/20 07:10:39;;;;;;;2.30;0.75;;;9.80;99.90;;;;;;4939872;28;20136;-74
2022/11/20 07:13:06;;;;;;;1.55;0.68;;;9.90;99.90;;;;;;4941996;28;20034;-74
2022/11/20 07:15:32;;;;;;;3.85;0.80;;;9.90;99.90;;;;;;4953292;28;20074;-74
2022/11/20 07:18:01;;;;;;;1.27;0.60;;;9.90;99.90;;;;;;4942743;28;20066;-74
2022/11/20 07:20:27;;;;;;;3.80;0.63;;;9.90;99.90;;;;;;4943174;28;20027;-74
2022/11/20 07:22:54;;;;;;;5.03;0.70;;;10.00;99.90;;;;;;4941241;28;20471;-74
2022/11/20 07:25:20;;;;;;;3.58;0.90;;;10.10;99.90;;;;;;4939907;28;20094;-74
2022/11/20 07:27:46;;;;;;;5.13;0.90;;;10.10;99.90;;;;;;4938811;28;20247;-75
2022/11/20 07:30:13;;;;;;;4.15;0.82;;;10.10;99.90;;;;;;4926545;28;20070;-74
2022/11/20 07:32:39;;;;;;;2.00;0.57;;;10.20;99.90;;;;;;4942282;28;20155;-73
2022/11/20 07:35:05;;;;;;;2.53;0.95;;;10.20;99.90;;;;;;4941796;28;20126;-74
2022/11/20 07:37:33;;;;;;;3.90;0.77;;;10.30;99.90;;;;;;4941294;28;20024;-74
2022/11/20 07:39:59;;;;;;;3.90;0.88;;;10.40;99.90;;;;;;4940045;23;20227;-74
2022/11/20 07:42:24;;;;;;;4.78;1.02;;;10.40;99.90;;;;;;4925004;29;20138;-74
2022/11/20 07:44:50;;;;;;;8.63;1.40;;;10.50;99.90;;;;;;4922297;28;20039;-74
2022/11/20 07:47:15;;;;;;;5.95;1.45;;;10.50;99.90;;;;;;4920391;29;20024;-74
2022/11/20 07:49:41;;;;;;;7.35;0.95;;;10.60;99.90;;;;;;4920057;28;20105;-73
2022/11/20 07:52:07;;;;;;;7.60;1.05;;;10.70;99.90;;;;;;4920219;29;20024;-74
2022/11/20 07:54:32;;;;;;;5.75;1.13;;;10.70;99.90;;;;;;4916596;29;20039;-74
2022/11/20 07:56:58;;;;;;;7.63;0.80;;;10.70;99.90;;;;;;4917251;29;20361;-72
2022/11/20 07:59:23;;;;;;;8.45;0.68;;;10.80;99.90;;;;;;4921857;29;20036;-74
2022/11/20 08:01:49;;;;;;;4.47;0.80;;;10.80;99.90;;;;;;4915688;29;20031;-74
2022/11/20 08:04:16;;;;;;;5.20;0.80;;;10.90;99.90;;;;;;4912451;29;20042;-74
2022/11/20 08:06:41;;;;;;;6.88;0.88;;;10.90;99.90;;;;;;4914127;28;20080;-74
2022/11/20 08:09:07;;;;;;;7.50;1.05;;;10.90;99.90;;;;;;4910312;29;20118;-74
2022/11/20 08:14:17;;;;;;;5.63;0.60;;;10.90;99.90;;;;;;4926899;29;20146;-74
2022/11/20 08:16:47;;;;;;;5.03;0.63;;;10.90;99.90;;;;;;4926863;29;20114;-75
2022/11/20 08:19:15;;;;;;;11.13;0.90;;;11.00;99.90;;;;;;4915077;29;20059;-74
2022/11/20 08:21:41;;;;;;;6.70;1.08;;;11.00;99.90;;;;;;4909768;29;20031;-74
2022/11/20 08:24:07;;;;;;;9.10;0.98;;;11.00;99.90;;;;;;4923192;29;20119;-74
2022/11/20 08:26:34;;;;;;;3.10;0.52;;;11.00;99.90;;;;;;4929964;28;20078;-76
2022/11/20 08:28:59;;;;;;;3.00;0.50;;;10.80;99.90;;;;;;4914614;29;20399;-73
2022/11/20 08:31:26;;;;;;;4.90;0.35;;;10.80;99.90;;;;;;4931392;28;20035;-74
2022/11/20 08:33:52;;;;;;;1.13;0.43;;;10.80;99.90;;;;;;4913317;29;20337;-76
2022/11/20 08:36:18;;;;;;;0.68;0.20;;;10.80;99.90;;;;;;4923729;29;20060;-75
2022/11/20 08:38:49;;;;;;;0.20;0.20;;;10.80;99.90;;;;;;4923453;29;20318;-74
2022/11/20 08:41:23;;;;;;;0.20;0.20;;;10.90;99.90;;;;;;4928858;28;20043;-75
2022/11/20 08:43:56;;;;;;;0.25;0.25;;;10.90;99.90;;;;;;4924487;29;20031;-76
2022/11/20 08:46:26;;;;;;;0.28;0.20;;;10.80;99.90;;;;;;4925019;29;20036;-75
2022/11/20 08:48:52;;;;;;;0.67;0.30;;;10.70;99.90;;;;;;4921566;28;20111;-75
2022/11/20 08:51:19;;;;;;;0.30;0.20;;;10.80;99.90;;;;;;4918558;29;20038;-76
2022/11/20 08:53:44;;;;;;;0.52;0.40;;;11.00;99.90;;;;;;4908775;29;20172;-75
2022/11/20 08:56:10;;;;;;;1.98;0.32;;;11.20;99.90;;;;;;4905135;29;20031;-76
2022/11/20 08:58:37;;;;;;;1.42;0.55;;;11.40;99.90;;;;;;4904250;29;20032;-76
2022/11/20 09:01:02;;;;;;;1.45;0.40;;;12.20;99.80;;;;;;4905776;29;20043;-75
2022/11/20 09:03:28;;;;;;;0.60;0.30;;;13.00;96.30;;;;;;4914286;29;20396;-76
2022/11/20 09:05:59;;;;;;;0.47;0.28;;;14.10;92.90;;;;;;4920170;29;20507;-75
2022/11/20 09:08:24;;;;;;;0.80;0.40;;;14.80;90.40;;;;;;4916584;29;20589;-77
2022/11/20 09:10:54;;;;;;;1.60;0.30;;;14.80;89.80;;;;;;4906516;29;20991;-77
2022/11/20 09:13:20;;;;;;;2.10;0.70;;;14.50;89.40;;;;;;4901830;29;20231;-76
2022/11/20 09:15:46;;;;;;;1.73;0.50;;;14.30;90.30;;;;;;4901986;29;20036;-75
2022/11/20 09:18:13;;;;;;;2.85;0.40;;;14.00;91.20;;;;;;4913418;29;20325;-75
2022/11/20 09:20:38;;;;;;;1.88;0.40;;;13.80;91.20;;;;;;4923163;29;20138;-76
2022/11/20 09:23:04;;;;;;;3.92;0.75;;;13.90;91.70;;;;;;4920949;29;20078;-76
2022/11/20 09:25:29;;;;;;;3.40;0.80;;;14.20;91.30;;;;;;4913942;29;20497;-76
2022/11/20 09:27:58;;;;;;;1.98;0.60;;;14.00;90.80;;;;;;4908390;29;20047;-77
2022/11/20 09:30:25;;;;;;;6.93;0.82;;;13.90;90.40;;;;;;4919138;28;20135;-76
2022/11/20 09:32:51;;;;;;;5.25;0.82;;;14.10;90.90;;;;;;4907272;29;20049;-75
2022/11/20 09:35:17;;;;;;;4.35;1.05;;;14.30;90.30;;;;;;4903887;29;20508;-75
2022/11/20 09:37:43;;;;;;;5.47;0.93;;;14.30;90.00;;;;;;4902702;29;21193;-76
2022/11/20 09:40:29;;;;;;;5.47;1.20;;;14.20;88.60;;;;;;4919343;28;20492;-75
2022/11/20 09:43:01;;;;;;;2.75;0.98;;;13.70;90.30;;;;;;4921425;29;20134;-76
2022/11/20 09:45:48;;;;;;;4.82;1.02;;;13.40;90.70;;;;;;4919386;29;20081;-75
2022/11/20 09:48:40;;;;;;;5.63;0.90;;;13.10;91.10;;;;;;4922368;29;20032;-76
2022/11/20 09:51:24;;;;;;;5.22;1.15;;;13.00;91.90;;;;;;4892612;29;20555;-75
2022/11/20 09:53:59;;;;;;;7.88;1.27;;;13.10;92.50;;;;;;4917933;29;21720;-76
2022/11/20 09:56:25;;;;;;;7.25;1.42;;;13.20;91.80;;;;;;4917212;28;20479;-76
2022/11/20 09:58:54;;;;;;;5.82;0.77;;;13.50;91.80;;;;;;4922352;29;20067;-75
2022/11/20 10:01:25;;;;;;;7.95;1.30;;;13.70;91.30;;;;;;4916400;29;20115;-77
2022/11/20 10:04:05;;;;;;;;;;;13.50;90.90;;;;;;4916647;29;20038;-76
2022/11/20 10:06:41;;;;;;;5.32;0.80;;;13.70;90.70;;;;;;4921391;29;19994;-76
2022/11/20 10:09:13;;;;;;;4.65;1.02;;;14.00;90.40;;;;;;4918095;29;20043;-75
2022/11/20 10:11:38;;;;;;;8.20;1.25;;;14.40;89.60;;;;;;4920374;29;20058;-76
2022/11/20 10:14:34;;;;;;;8.80;1.73;;;14.70;85.00;;;;;;4922976;29;20043;-76
2022/11/20 10:17:42;;;;;;;5.85;1.17;;;14.70;83.50;;;;;;4914401;29;20296;-75
2022/11/20 10:20:16;;;;;;;7.55;1.05;;;14.50;84.40;;;;;;4905987;29;20222;-75
2022/11/20 10:23:02;;;;;;;7.38;1.27;;;14.30;83.40;;;;;;4913844;29;20039;-76
2022/11/20 10:25:40;;;;;;;6.63;1.38;;;14.20;85.20;;;;;;4908601;29;20104;-76
2022/11/20 10:28:24;;;;;;;7.13;1.40;;;14.20;86.00;;;;;;4917713;29;20023;-75
2022/11/20 10:31:07;;;;;;;5.30;1.33;;;14.40;86.00;;;;;;4912862;29;20456;-76
2022/11/20 10:33:38;;;;;;;7.57;1.13;;;14.60;85.90;;;;;;4908839;29;20064;-76
2022/11/20 10:36:22;;;;;;;4.85;0.98;;;14.90;84.60;;;;;;4909799;29;20480;-76
2022/11/20 10:39:03;;;;;;;6.05;1.20;;;15.20;84.30;;;;;;4907633;29;20459;-76
2022/11/20 10:41:34;;;;;;;8.50;1.23;;;15.50;81.40;;;;;;4915487;29;20131;-76
2022/11/20 10:44:11;;;;;;;9.82;1.20;;;15.80;78.70;;;;;;4910014;29;20356;-76
2022/11/20 10:46:55;;;;;;;7.70;1.10;;;16.00;80.10;;;;;;4905481;29;20035;-75
2022/11/20 10:49:20;;;;;;;4.60;1.20;;;16.30;75.40;;;;;;4908020;29;20044;-75
2022/11/20 10:52:03;;;;;;;8.50;1.40;;;17.00;74.10;;;;;;4913259;29;20043;-75
2022/11/20 10:54:49;;;;;;;8.05;1.30;;;18.10;66.80;;;;;;4920002;29;20036;-76
2022/11/20 10:57:43;;;;;;;10.57;1.58;;;18.30;66.20;;;;;;4909008;29;20147;-75
2022/11/20 11:00:13;;;;;;;9.75;1.70;;;18.10;67.90;;;;;;4903686;29;20091;-74
2022/11/20 11:02:49;;;;;;;13.25;1.83;;;17.30;68.30;;;;;;4905729;29;20035;-76
2022/11/20 11:05:40;;;;;;;6.97;1.50;;;16.50;68.90;;;;;;4906538;29;20107;-75
2022/11/20 11:08:13;;;;;;;7.40;1.48;;;15.60;73.40;;;;;;4908874;29;20087;-76
2022/11/20 11:10:54;;;;;;;10.43;1.52;;;14.70;77.40;;;;;;4921070;29;20117;-75
2022/11/20 11:13:22;;;;;;;10.85;1.73;;;14.10;82.20;;;;;;4928338;29;20051;-76
2022/11/20 11:15:48;;;;;;;11.40;1.60;;;14.00;83.30;;;;;;4917388;29;20504;-76
2022/11/20 11:18:24;;;;;;;10.95;1.60;;;13.80;85.10;;;;;;4917068;29;20082;-75
2022/11/20 11:20:51;;;;;;;9.88;1.55;;;13.60;84.10;;;;;;4928620;29;20528;-75
2022/11/20 11:23:41;;;;;;;9.65;1.70;;;13.40;85.20;;;;;;4931815;28;20118;-75
2022/11/20 11:26:22;;;;;;;11.00;1.45;;;13.30;87.00;;;;;;4916026;29;20483;-75
2022/11/20 11:28:58;;;;;;;;;;;13.20;88.80;;;;;;4927805;29;20032;-76
2022/11/20 11:31:28;;;;;;;12.10;1.35;;;13.60;88.20;;;;;;4921207;29;20314;-75
2022/11/20 11:34:10;;;;;;;11.45;1.98;;;14.40;86.60;;;;;;4926310;29;20164;-75
2022/11/20 11:36:36;;;;;;;8.40;1.83;;;15.10;82.10;;;;;;4934873;29;20043;-75
2022/11/20 11:39:05;;;;;;;12.63;1.65;;;15.60;77.80;;;;;;4919500;29;20348;-75
2022/11/20 11:41:35;;;;;;;10.93;1.85;;;15.90;75.90;;;;;;4923165;29;20522;-76
2022/11/20 11:47:00;;;;;;;9.55;1.50;;;16.20;74.50;;;;;;4925459;29;20046;-75
2022/11/20 11:49:26;;;;;;;12.48;2.65;;;16.50;72.10;;;;;;4920768;28;20039;-76
2022/11/20 11:52:11;;;;;;;10.98;1.75;;;16.30;72.90;;;;;;4934020;23;20032;-73
2022/11/20 11:54:59;;;;;;;15.40;1.98;;;16.20;72.10;;;;;;4919471;29;20434;-73
2022/11/20 11:57:43;;;;;;;10.23;1.50;;;16.30;74.20;;;;;;4910300;29;20023;-73
2022/11/20 12:00:20;;;;;;;18.52;2.17;;;16.80;71.50;;;;;;4912130;29;20458;-73
2022/11/20 12:02:48;;;;;;;14.63;1.92;;;17.00;71.00;;;;;;4907222;29;20043;-73
2022/11/20 12:05:30;;;;;;;9.75;1.95;;;17.00;69.60;;;;;;4900486;29;20487;-73
2022/11/20 12:08:20;;;;;;;13.43;2.10;;;16.60;69.80;;;;;;4912640;29;20480;-73
2022/11/20 12:10:52;;;;;;;12.07;1.80;;;16.50;69.30;;;;;;4914573;29;20559;-73
2022/11/20 12:13:34;;;;;;;10.80;1.55;;;16.60;70.30;;;;;;4920001;29;20051;-73
2022/11/20 12:16:00;;;;;;;;;;;16.50;68.90;;;;;;4912932;29;20542;-74
2022/11/20 12:18:26;;;;;;;10.65;1.88;;;16.50;69.80;;;;;;4920089;29;20117;-73
2022/11/20 12:21:16;;;;;;;16.10;2.80;;;16.40;67.80;;;;;;4912519;29;20090;-73
2022/11/20 12:23:47;;;;;;;20.90;2.17;;;16.00;68.90;;;;;;4914861;29;20059;-73
2022/11/20 12:26:24;;;;;;;7.57;2.30;;;16.20;73.20;;;;;;4911283;29;20025;-73
2022/11/20 12:28:57;;;;;;;12.02;1.98;;;15.90;70.30;;;;;;4917210;29;20472;-73
2022/11/20 12:31:25;;;;;;;11.88;1.92;;;15.80;71.60;;;;;;4917776;29;20042;-73
2022/11/20 12:34:37;;;;;;;11.32;1.98;;;16.00;70.90;;;;;;4919855;29;20058;-73
2022/11/20 12:37:32;;;;;;;11.77;1.90;;;16.00;71.50;;;;;;4907878;29;20131;-73
2022/11/20 12:40:12;;;;;;;9.70;1.77;;;16.00;67.40;;;;;;4904100;29;20044;-72
2022/11/20 12:46:03;;;;;;;14.52;2.08;;;15.90;70.40;;;;;;4904565;29;20058;-72
2022/11/20 12:48:29;;;;;;;11.00;2.30;;;15.80;70.40;;;;;;4921516;29;20047;-73
2022/11/20 12:51:01;;;;;;;15.27;2.63;;;15.70;69.30;;;;;;4905845;29;20070;-72
2022/11/20 12:53:41;;;;;;;10.35;2.03;;;15.60;68.60;;;;;;4910918;29;20055;-73
2022/11/20 12:56:21;;;;;;;12.25;2.00;;;15.50;68.70;;;;;;4918428;29;20080;-72
2022/11/20 12:59:02;;;;;;;14.60;2.22;;;15.60;70.70;;;;;;4918241;29;20040;-72
2022/11/20 13:01:43;;;;;;;12.85;2.00;;;15.50;67.30;;;;;;4915788;29;20044;-73
2022/11/20 13:04:33;;;;;;;12.27;1.95;;;15.40;69.50;;;;;;4915826;29;20432;-73
2022/11/20 13:07:02;;;;;;;9.25;1.80;;;15.20;66.00;;;;;;4919851;29;20075;-73
2022/11/20 13:09:28;;;;;;;16.77;2.20;;;15.10;68.40;;;;;;4917322;29;20458;-73